Weather reports worldwide

Advertisment
Cap Gris Nez, France (7004): temperature & dewpoint: 07.08.2020 01:00:00 - 13.08.2020 01:00:00 (CEST)Cap Gris Nez, France (7004): wind speed & gusts: 07.08.2020 01:00:00 - 13.08.2020 01:00:00 (CEST)Cap Gris Nez, France (7004): wind direction: 07.08.2020 01:00:00 - 13.08.2020 01:00:00 (CEST)Cap Gris Nez, France (7004): precipitation: 07.08.2020 01:00:00 - 13.08.2020 01:00:00 (CEST)
Date & Time tt [°C] td [°C] ff [km/h] ff [kn] fx [km/h] fx [kn] dd rr [mm]
13.08.2020 01:00:00 - - - - - - - -
13.08.2020 00:00:00 - - - - - - - -
12.08.2020 23:00:00 - - - - - - - -
12.08.2020 22:00:00 - - - - - - - -
12.08.2020 21:00:00 - - - - - - - -
12.08.2020 20:00:00 - - - - - - - -
12.08.2020 19:00:00 - - - - - - - -
12.08.2020 18:00:00 - - - - - - - -
12.08.2020 17:00:00 - - - - - - - -
12.08.2020 16:00:00 - - - - - - - -
12.08.2020 15:00:00 - - - - - - - -
12.08.2020 14:00:00 - - - - - - - -
12.08.2020 13:00:00 - - - - - - - -
12.08.2020 12:00:00 - - - - - - - -
12.08.2020 11:00:00 - - - - - - - -
12.08.2020 10:00:00 - - - - - - - -
12.08.2020 09:00:00 - - - - - - - -
12.08.2020 08:00:00 - - - - - - - -
12.08.2020 07:00:00 - - - - - - - -
12.08.2020 06:00:00 - - - - - - - -
12.08.2020 05:00:00 - - - - - - - -
12.08.2020 04:00:00 - - - - - - - -
12.08.2020 03:00:00 - - - - - - - -
12.08.2020 02:00:00 - - - - - - - -
12.08.2020 01:00:00 - - - - - - - -
12.08.2020 00:00:00 - - - - - - - -
11.08.2020 23:00:00 - - - - - - - -
11.08.2020 22:00:00 - - - - - - - -
11.08.2020 21:00:00 - - - - - - - -
11.08.2020 20:00:00 - - - - - - - -
11.08.2020 19:00:00 - - - - - - - -
11.08.2020 18:00:00 - - - - - - - -
11.08.2020 17:00:00 - - - - - - - -
11.08.2020 16:00:00 - - - - - - - -
11.08.2020 15:00:00 - - - - - - - -
11.08.2020 14:00:00 - - - - - - - -
11.08.2020 13:00:00 - - - - - - - -
11.08.2020 12:00:00 - - - - - - - -
11.08.2020 11:00:00 - - - - - - - -
11.08.2020 10:00:00 - - - - - - - -
11.08.2020 09:00:00 - - - - - - - -
11.08.2020 08:00:00 - - - - - - - -
11.08.2020 07:00:00 - - - - - - - -
11.08.2020 06:00:00 - - - - - - - -
11.08.2020 05:00:00 - - - - - - - -
11.08.2020 04:00:00 - - - - - - - -
11.08.2020 03:00:00 - - - - - - - -
11.08.2020 02:00:00 - - - - - - - -
11.08.2020 01:00:00 - - - - - - - -
11.08.2020 00:00:00 - - - - - - - -
10.08.2020 23:00:00 - - - - - - - -
10.08.2020 22:00:00 - - - - - - - -
10.08.2020 21:00:00 - - - - - - - -
10.08.2020 20:00:00 - - - - - - - -
10.08.2020 19:00:00 - - - - - - - -
10.08.2020 18:00:00 - - - - - - - -
10.08.2020 17:00:00 - - - - - - - -
10.08.2020 16:00:00 - - - - - - - -
10.08.2020 15:00:00 - - - - - - - -
10.08.2020 14:00:00 - - - - - - - -
10.08.2020 13:00:00 - - - - - - - -
10.08.2020 12:00:00 - - - - - - - -
10.08.2020 11:00:00 - - - - - - - -
10.08.2020 10:00:00 - - - - - - - -
10.08.2020 09:00:00 - - - - - - - -
10.08.2020 08:00:00 - - - - - - - -
10.08.2020 07:00:00 19,0 18,3 17 9 23 12 NE 0,0
10.08.2020 06:00:00 19,1 18,4 17 9 23 12 NE 0,0
10.08.2020 05:00:00 19,7 18,9 16 9 22 12 NE 0,0
10.08.2020 04:00:00 20,1 18,9 9 5 16 9 NNE 0,0
10.08.2020 03:00:00 20,3 18,8 11 6 17 9 NE 0,0
10.08.2020 02:00:00 20,9 19,2 5 3 20 11 NNE 0,0
10.08.2020 01:00:00 20,6 18,9 13 7 29 15 NE 0,0
10.08.2020 00:00:00 20,4 19,1 21 11 36 19 NE 0,0
09.08.2020 23:00:00 20,9 18,8 27 15 - - NE 0,0
09.08.2020 22:00:00 20,8 18,7 24 13 32 17 NE 0,0
09.08.2020 21:00:00 21,0 18,6 26 14 33 18 NNE 0,0
09.08.2020 20:00:00 21,4 19,0 26 14 32 17 NE 0,0
09.08.2020 19:00:00 21,4 18,8 22 12 32 17 NE 0,0
09.08.2020 18:00:00 22,3 18,7 25 14 35 19 NE 0,0
09.08.2020 17:00:00 23,0 19,2 29 15 37 20 NE 0,0
09.08.2020 16:00:00 22,4 19,0 25 14 35 19 NE 0,0
09.08.2020 15:00:00 22,0 19,0 25 14 34 19 NE 0,0
09.08.2020 14:00:00 21,4 18,8 25 13 34 18 NE 0,0
09.08.2020 13:00:00 21,0 18,6 29 16 41 22 NE 0,0
09.08.2020 12:00:00 20,9 18,7 32 18 46 25 NE 0,0
09.08.2020 11:00:00 20,8 18,7 29 16 43 23 NE 0,0
09.08.2020 10:00:00 19,7 18,7 34 18 42 23 NNE 0,0
09.08.2020 09:00:00 18,7 18,0 30 16 41 22 NE 0,2
09.08.2020 08:00:00 18,7 18,2 33 18 40 22 NE 0,4
09.08.2020 07:00:00 18,7 18,2 28 15 40 22 NNE 0,0
09.08.2020 06:00:00 18,8 18,1 26 14 43 23 NNE 0,0
09.08.2020 05:00:00 18,7 18,0 34 18 46 25 NNE 0,0
09.08.2020 04:00:00 18,6 17,9 30 16 46 25 NE 0,0
09.08.2020 03:00:00 18,6 17,8 29 16 46 25 NE 0,0
09.08.2020 02:00:00 18,7 17,7 31 17 41 22 NE 0,0
09.08.2020 01:00:00 18,7 17,7 33 18 39 21 NE 0,0
09.08.2020 00:00:00 19,0 17,8 26 14 35 19 NE 0,0
08.08.2020 23:00:00 19,1 17,6 25 14 33 18 NE 0,0
08.08.2020 22:00:00 19,6 17,6 18 10 26 14 NE 0,0
08.08.2020 21:00:00 20,3 17,7 15 8 26 14 NE 0,0
08.08.2020 20:00:00 21,3 17,3 16 9 34 19 NE 0,0
08.08.2020 19:00:00 23,0 17,0 23 12 31 17 NE 0,0
08.08.2020 18:00:00 22,7 17,2 18 10 28 15 NE 0,0
08.08.2020 17:00:00 21,7 18,3 16 9 26 14 NE 0,0
08.08.2020 16:00:00 22,0 17,6 19 10 26 14 NE 0,0
08.08.2020 15:00:00 23,5 15,8 19 10 25 14 ENE 0,0
08.08.2020 14:00:00 22,3 17,2 16 9 24 13 ENE 0,0
08.08.2020 13:00:00 25,5 15,8 15 8 23 12 NE 0,0
08.08.2020 12:00:00 27,1 15,1 14 8 21 12 NE 0,0
08.08.2020 11:00:00 26,5 16,1 9 5 13 7 E 0,0
08.08.2020 10:00:00 24,2 17,2 9 5 19 10 E 0,0
08.08.2020 09:00:00 22,9 16,7 14 7 20 11 ENE 0,0
08.08.2020 08:00:00 22,4 16,4 9 5 21 11 N 0,0
08.08.2020 07:00:00 26,7 12,4 18 10 29 15 SE 0,0
08.08.2020 06:00:00 27,3 12,1 22 12 30 16 SE 0,0
08.08.2020 05:00:00 27,2 12,4 23 12 31 17 SE 0,0
08.08.2020 04:00:00 27,0 13,0 22 12 31 17 SE 0,0
08.08.2020 03:00:00 26,5 13,9 23 13 36 19 SE 0,0
08.08.2020 02:00:00 26,8 13,9 24 13 33 18 SE 0,0
08.08.2020 01:00:00 26,8 14,2 24 13 31 17 ESE 0,0
08.08.2020 00:00:00 27,0 14,1 23 12 30 16 ESE 0,0
07.08.2020 23:00:00 25,9 14,4 19 10 26 14 E 0,0
07.08.2020 22:00:00 21,2 17,0 16 9 21 11 ENE 0,0
07.08.2020 21:00:00 21,8 16,3 18 10 25 14 ENE 0,0
07.08.2020 20:00:00 23,5 16,0 16 8 23 12 NE 0,0
07.08.2020 19:00:00 25,4 15,4 18 10 24 13 NE 0,0
07.08.2020 18:00:00 27,3 13,6 14 8 23 12 NE 0,0
07.08.2020 17:00:00 26,6 15,0 11 6 19 11 ENE 0,0
07.08.2020 16:00:00 27,1 13,1 11 6 17 9 NE 0,0
07.08.2020 15:00:00 26,9 13,6 11 6 18 10 NE 0,0
07.08.2020 14:00:00 26,0 13,5 10 5 15 8 NNE 0,0
07.08.2020 13:00:00 26,6 13,7 7 4 12 7 NE 0,0
07.08.2020 12:00:00 26,5 13,9 4 2 13 7 NE 0,0
07.08.2020 11:00:00 28,4 13,9 10 5 18 10 SSW 0,0
07.08.2020 10:00:00 27,2 13,2 8 4 13 7 S 0,0
07.08.2020 09:00:00 26,6 11,9 8 5 16 9 S 0,0
07.08.2020 08:00:00 24,3 11,6 12 6 22 12 S 0,0
07.08.2020 07:00:00 22,0 11,7 18 10 23 12 SSE 0,0
07.08.2020 06:00:00 22,8 11,8 15 8 18 10 S 0,0
07.08.2020 05:00:00 20,8 13,0 13 7 16 9 SSE 0,0
07.08.2020 04:00:00 20,3 15,5 3 2 11 6 SE 0,0
07.08.2020 03:00:00 20,3 15,7 7 4 15 8 E 0,0
07.08.2020 02:00:00 20,2 15,8 9 5 22 12 ENE 0,0
07.08.2020 01:00:00 21,0 15,8 18 10 25 13 ENE 0,0

tt = temperature
td = dewpoint
ff = wind speed
fx = gusts
dd = wind direction
rr = precipitation

Next stations